Time;durP1;ratioP1;P1;durP2;ratioP2;P2;SDS_P1;SDS_P2;PMS_P1;PMS_P2;Temp;Humidity;BMP_temperature;BMP_pressure;BME280_temperature;BME280_humidity;BME280_pressure;Samples;Min_cycle;Max_cycle;Signal;HPM_P1;HPM_P2
2022/01/05 00:00:14;;;;;;;0.63;0.63;;;6.70;77.00;;;;;;7376279;19;20131;-47
2022/01/05 00:02:44;;;;;;;0.60;0.60;;;6.70;78.10;;;;;;7373337;19;20132;-47
2022/01/05 00:05:16;;;;;;;0.50;0.50;;;6.80;77.00;;;;;;7376737;19;20127;-47
2022/01/05 00:07:46;;;;;;;0.50;0.50;;;6.80;77.10;;;;;;7374417;19;20488;-47
2022/01/05 00:10:16;;;;;;;0.80;0.70;;;6.80;77.40;;;;;;7377322;19;20124;-47
2022/01/05 00:12:45;;;;;;;0.60;0.60;;;6.80;77.20;;;;;;7372028;19;20846;-47
2022/01/05 00:15:15;;;;;;;0.98;0.50;;;6.70;76.80;;;;;;7371781;19;20134;-47
2022/01/05 00:17:44;;;;;;;0.50;0.50;;;6.80;77.00;;;;;;7368669;19;20173;-47
2022/01/05 00:20:17;;;;;;;0.63;0.40;;;6.80;76.80;;;;;;7373727;19;20131;-47
2022/01/05 00:22:46;;;;;;;0.40;0.40;;;6.70;76.70;;;;;;7372796;19;20135;-47
2022/01/05 00:25:16;;;;;;;0.40;0.40;;;6.70;77.30;;;;;;7373269;19;20621;-47
2022/01/05 00:27:45;;;;;;;0.40;0.40;;;6.80;76.80;;;;;;7369623;19;20138;-47
2022/01/05 00:30:15;;;;;;;1.65;0.50;;;6.70;77.40;;;;;;7375839;19;20139;-47
2022/01/05 00:32:44;;;;;;;1.10;0.40;;;6.80;76.80;;;;;;7380052;19;20130;-47
2022/01/05 00:35:16;;;;;;;0.35;0.35;;;6.80;76.20;;;;;;7378031;19;20127;-47
2022/01/05 00:37:46;;;;;;;0.60;0.60;;;6.70;76.80;;;;;;7379531;19;20150;-47
2022/01/05 00:40:18;;;;;;;0.85;0.40;;;6.60;76.70;;;;;;7380703;19;20124;-48
2022/01/05 00:42:47;;;;;;;0.40;0.40;;;6.70;76.90;;;;;;7382073;19;20706;-49
2022/01/05 00:45:17;;;;;;;1.15;0.60;;;6.40;77.10;;;;;;7379488;19;20635;-49
2022/01/05 00:47:46;;;;;;;0.40;0.40;;;6.40;77.30;;;;;;7380003;19;20147;-48
2022/01/05 00:50:19;;;;;;;1.95;0.55;;;6.40;78.30;;;;;;7378947;19;20120;-49
2022/01/05 00:52:48;;;;;;;0.40;0.40;;;6.40;77.20;;;;;;7376740;19;20131;-48
2022/01/05 00:55:18;;;;;;;0.90;0.70;;;6.20;78.10;;;;;;7372221;19;20120;-48
2022/01/05 00:57:47;;;;;;;0.40;0.40;;;6.30;78.30;;;;;;7377545;19;20627;-51
2022/01/05 01:00:17;;;;;;;0.98;0.52;;;6.40;77.50;;;;;;7379543;19;20146;-49
2022/01/05 01:02:47;;;;;;;0.60;0.40;;;6.40;77.70;;;;;;7380695;19;20131;-49
2022/01/05 01:05:19;;;;;;;0.50;0.40;;;6.40;77.10;;;;;;7380274;19;20199;-50
2022/01/05 01:07:48;;;;;;;0.35;0.30;;;6.50;77.30;;;;;;7371316;19;20119;-49
2022/01/05 01:10:18;;;;;;;0.35;0.32;;;6.50;77.00;;;;;;7378488;19;20138;-49
2022/01/05 01:12:48;;;;;;;0.20;0.20;;;6.50;76.30;;;;;;7378043;19;20135;-48
2022/01/05 01:15:17;;;;;;;0.50;0.40;;;6.50;76.70;;;;;;7373534;19;20132;-48
2022/01/05 01:17:47;;;;;;;0.50;0.50;;;6.70;76.60;;;;;;7377700;19;20612;-48
2022/01/05 01:20:20;;;;;;;0.30;0.30;;;6.70;76.20;;;;;;7377132;19;20127;-48
2022/01/05 01:22:50;;;;;;;0.40;0.30;;;6.70;75.50;;;;;;7377409;19;20643;-48
2022/01/05 01:25:19;;;;;;;0.30;0.20;;;6.60;76.40;;;;;;7378623;19;20147;-49
2022/01/05 01:27:49;;;;;;;0.60;0.30;;;6.60;75.90;;;;;;7377479;19;20143;-48
2022/01/05 01:30:21;;;;;;;0.38;0.30;;;6.70;76.20;;;;;;7376271;19;20143;-48
2022/01/05 01:32:50;;;;;;;1.48;0.35;;;6.70;76.20;;;;;;7369807;19;20127;-48
2022/01/05 01:35:22;;;;;;;0.55;0.30;;;6.60;75.60;;;;;;7377841;19;20130;-48
2022/01/05 01:37:52;;;;;;;1.63;0.30;;;6.50;76.30;;;;;;7376338;19;20502;-47
2022/01/05 01:40:22;;;;;;;0.30;0.20;;;6.40;76.40;;;;;;7374520;19;20161;-47
2022/01/05 01:42:52;;;;;;;0.60;0.30;;;6.50;76.90;;;;;;7375486;19;20125;-46
2022/01/05 01:45:21;;;;;;;1.55;0.30;;;6.60;76.50;;;;;;7377946;19;20140;-47
2022/01/05 01:47:51;;;;;;;0.30;0.28;;;6.60;76.80;;;;;;7377211;19;20146;-47
2022/01/05 01:50:23;;;;;;;0.40;0.30;;;6.70;76.20;;;;;;7375368;19;20145;-47
2022/01/05 01:52:52;;;;;;;0.30;0.30;;;6.80;76.10;;;;;;7375915;19;20136;-47
2022/01/05 01:55:22;;;;;;;0.80;0.30;;;6.90;76.00;;;;;;7363753;19;20991;-47
2022/01/05 01:57:52;;;;;;;0.30;0.30;;;6.90;75.00;;;;;;7377390;19;20143;-47
2022/01/05 02:00:21;;;;;;;1.15;0.30;;;7.00;75.40;;;;;;7373971;19;20124;-48
2022/01/05 02:02:51;;;;;;;0.40;0.40;;;7.00;75.30;;;;;;7375045;19;20135;-48
2022/01/05 02:05:23;;;;;;;1.13;0.45;;;7.10;76.00;;;;;;7369875;19;20525;-48
2022/01/05 02:07:53;;;;;;;0.20;0.20;;;6.90;75.20;;;;;;7375872;19;20128;-47
2022/01/05 02:10:23;;;;;;;0.65;0.40;;;6.80;76.00;;;;;;7375963;19;20139;-49
2022/01/05 02:12:53;;;;;;;0.40;0.20;;;6.90;75.60;;;;;;7373965;19;20511;-48
2022/01/05 02:15:22;;;;;;;0.40;0.30;;;6.80;76.10;;;;;;7375913;19;21320;-49
2022/01/05 02:17:56;;;;;;;0.40;0.30;;;6.80;76.10;;;;;;7369810;19;20571;-49
2022/01/05 02:20:30;;;;;;;0.60;0.50;;;6.80;76.10;;;;;;7375722;19;20146;-48
2022/01/05 02:23:03;;;;;;;0.40;0.40;;;7.00;76.30;;;;;;7375772;19;20148;-49
2022/01/05 02:25:35;;;;;;;2.47;0.30;;;7.00;75.40;;;;;;7377823;19;20135;-48
2022/01/05 02:28:05;;;;;;;0.30;0.30;;;6.90;75.00;;;;;;7375590;19;20127;-49
2022/01/05 02:30:35;;;;;;;0.60;0.40;;;6.80;75.80;;;;;;7374135;19;20132;-48
2022/01/05 02:33:04;;;;;;;0.40;0.30;;;6.90;76.20;;;;;;7373900;19;20147;-48
2022/01/05 02:35:34;;;;;;;0.70;0.50;;;7.00;76.30;;;;;;7375542;19;20142;-48
2022/01/05 02:38:06;;;;;;;0.50;0.43;;;6.90;75.90;;;;;;7365262;19;20127;-48
2022/01/05 02:40:38;;;;;;;0.50;0.40;;;6.70;76.30;;;;;;7374902;19;20657;-48
2022/01/05 02:43:08;;;;;;;0.50;0.38;;;6.80;76.50;;;;;;7375376;19;21866;-48
2022/01/05 02:45:37;;;;;;;0.52;0.40;;;6.90;75.90;;;;;;7378792;19;20497;-49
2022/01/05 02:48:09;;;;;;;1.27;0.40;;;6.90;75.60;;;;;;7371831;19;20163;-48
2022/01/05 02:50:39;;;;;;;1.10;0.50;;;7.00;75.80;;;;;;7374874;19;20123;-48
2022/01/05 02:53:11;;;;;;;0.30;0.28;;;7.10;75.70;;;;;;7373151;19;20159;-48
2022/01/05 02:55:41;;;;;;;0.40;0.40;;;7.10;75.70;;;;;;7366332;19;20135;-48
2022/01/05 02:58:11;;;;;;;0.60;0.50;;;6.90;75.60;;;;;;7375522;19;20716;-48
2022/01/05 03:00:40;;;;;;;0.50;0.40;;;6.90;76.80;;;;;;7374190;19;20282;-48
2022/01/05 03:03:10;;;;;;;0.30;0.30;;;6.80;77.10;;;;;;7375449;19;20128;-49
2022/01/05 03:05:41;;;;;;;0.60;0.50;;;6.80;78.10;;;;;;7374235;19;20135;-48
2022/01/05 03:08:14;;;;;;;0.40;0.40;;;6.70;79.80;;;;;;7367447;19;20134;-49
2022/01/05 03:10:43;;;;;;;0.47;0.40;;;6.80;79.50;;;;;;7368603;19;20155;-48
2022/01/05 03:13:13;;;;;;;0.47;0.45;;;6.70;80.30;;;;;;7372830;19;20155;-48
2022/01/05 03:15:42;;;;;;;0.47;0.32;;;6.70;80.50;;;;;;7374141;19;20609;-48
2022/01/05 03:18:12;;;;;;;0.60;0.60;;;6.50;79.60;;;;;;7367776;19;20140;-49
2022/01/05 03:20:42;;;;;;;0.75;0.50;;;6.50;79.70;;;;;;7373742;19;20134;-47
2022/01/05 03:23:14;;;;;;;0.50;0.50;;;6.50;79.00;;;;;;7368986;19;20158;-49
2022/01/05 03:25:43;;;;;;;0.40;0.40;;;6.40;79.20;;;;;;7373028;19;20135;-47
2022/01/05 03:28:13;;;;;;;0.43;0.40;;;6.40;79.20;;;;;;7372047;19;20132;-47
2022/01/05 03:30:43;;;;;;;0.68;0.50;;;6.40;79.60;;;;;;7372424;19;20128;-47
2022/01/05 03:33:19;;;;;;;0.47;0.47;;;6.60;79.40;;;;;;7373639;19;20127;-47
2022/01/05 03:35:51;;;;;;;0.30;0.30;;;6.60;78.50;;;;;;7372280;19;20652;-47
2022/01/05 03:38:24;;;;;;;0.30;0.30;;;6.60;78.00;;;;;;7370813;19;20146;-47
2022/01/05 03:40:53;;;;;;;0.60;0.30;;;6.60;77.50;;;;;;7373315;19;20124;-47
2022/01/05 03:43:23;;;;;;;0.30;0.30;;;6.60;77.40;;;;;;7376001;19;20143;-47
2022/01/05 03:45:53;;;;;;;0.30;0.30;;;6.70;77.50;;;;;;7365144;19;20127;-47
2022/01/05 03:48:24;;;;;;;0.40;0.40;;;6.80;76.80;;;;;;7370876;19;20643;-46
2022/01/05 03:50:54;;;;;;;0.30;0.30;;;6.80;75.80;;;;;;7375368;19;20123;-48
2022/01/05 03:53:26;;;;;;;0.30;0.30;;;6.70;76.00;;;;;;7374000;19;20146;-48
2022/01/05 03:55:56;;;;;;;0.55;0.30;;;6.70;76.30;;;;;;7365663;19;20169;-47
2022/01/05 03:58:26;;;;;;;0.30;0.30;;;6.60;76.40;;;;;;7370268;19;20131;-49
2022/01/05 04:00:58;;;;;;;0.40;0.30;;;6.60;75.80;;;;;;7370980;19;20138;-48
2022/01/05 04:03:28;;;;;;;0.20;0.20;;;6.60;76.60;;;;;;7370205;19;20517;-49
2022/01/05 04:05:57;;;;;;;0.32;0.30;;;6.50;76.30;;;;;;7370784;19;20134;-48
2022/01/05 04:08:30;;;;;;;0.35;0.25;;;6.50;76.90;;;;;;7375455;19;20529;-48
2022/01/05 04:10:59;;;;;;;0.30;0.30;;;6.50;76.50;;;;;;7368590;19;20159;-49
2022/01/05 04:13:29;;;;;;;0.40;0.38;;;6.60;76.10;;;;;;7369220;19;20132;-48
2022/01/05 04:15:58;;;;;;;0.35;0.32;;;6.50;76.20;;;;;;7372326;19;20131;-47
2022/01/05 04:18:28;;;;;;;0.30;0.25;;;6.50;76.50;;;;;;7366715;19;20143;-48
2022/01/05 04:20:57;;;;;;;0.30;0.20;;;6.60;76.20;;;;;;7371395;19;20598;-49
2022/01/05 04:23:29;;;;;;;0.30;0.30;;;6.60;76.10;;;;;;7369384;19;20123;-47
2022/01/05 04:25:59;;;;;;;0.30;0.30;;;6.60;77.30;;;;;;7372351;19;20143;-49
2022/01/05 04:28:28;;;;;;;1.40;0.40;;;6.60;76.50;;;;;;7369130;19;20602;-49
2022/01/05 04:30:58;;;;;;;0.47;0.30;;;6.60;76.50;;;;;;7371794;19;20131;-48
2022/01/05 04:33:27;;;;;;;0.30;0.20;;;6.60;77.10;;;;;;7372763;19;20165;-49
2022/01/05 04:35:57;;;;;;;1.10;0.40;;;6.70;77.50;;;;;;7373876;19;20127;-48
2022/01/05 04:38:29;;;;;;;0.75;0.60;;;6.80;76.30;;;;;;7369996;19;20589;-49
2022/01/05 04:40:59;;;;;;;0.40;0.30;;;6.90;76.50;;;;;;7367640;19;20127;-49
2022/01/05 04:43:28;;;;;;;0.40;0.30;;;7.00;76.60;;;;;;7372215;19;20135;-48
2022/01/05 04:46:00;;;;;;;1.63;0.40;;;7.00;76.70;;;;;;7368804;19;20131;-49
2022/01/05 04:48:29;;;;;;;0.50;0.30;;;7.00;77.60;;;;;;7372658;19;20190;-49
2022/01/05 04:50:59;;;;;;;0.30;0.30;;;6.90;78.10;;;;;;7372704;19;20142;-47
2022/01/05 04:53:31;;;;;;;0.60;0.32;;;6.60;79.50;;;;;;7371160;19;20136;-47
2022/01/05 04:56:01;;;;;;;0.20;0.20;;;6.50;82.60;;;;;;7356010;19;20131;-47
2022/01/05 04:58:31;;;;;;;0.60;0.30;;;6.50;82.70;;;;;;7370059;19;20142;-47
2022/01/05 05:01:00;;;;;;;0.63;0.63;;;6.50;81.90;;;;;;7370815;19;20151;-47
2022/01/05 05:03:30;;;;;;;0.30;0.30;;;6.50;82.20;;;;;;7371662;19;20150;-47
2022/01/05 05:06:00;;;;;;;0.30;0.30;;;6.60;81.00;;;;;;7373320;19;20492;-47
2022/01/05 05:08:32;;;;;;;0.80;0.35;;;6.80;81.70;;;;;;7373128;19;20136;-47
2022/01/05 05:11:02;;;;;;;0.70;0.40;;;6.60;81.80;;;;;;7365917;19;20159;-47
2022/01/05 05:13:31;;;;;;;0.40;0.40;;;6.60;80.80;;;;;;7370849;19;20144;-47
2022/01/05 05:16:01;;;;;;;0.57;0.30;;;6.60;80.40;;;;;;7371096;19;20136;-47
2022/01/05 05:18:31;;;;;;;0.63;0.50;;;6.70;80.20;;;;;;7366657;19;20533;-47
2022/01/05 05:21:01;;;;;;;0.50;0.38;;;6.70;80.10;;;;;;7376697;19;20124;-47
2022/01/05 05:23:33;;;;;;;0.40;0.40;;;6.80;78.60;;;;;;7378525;19;20858;-47
2022/01/05 05:26:03;;;;;;;0.55;0.43;;;6.80;78.40;;;;;;7377518;19;20239;-47
2022/01/05 05:28:35;;;;;;;0.60;0.60;;;6.90;78.30;;;;;;7374923;19;20179;-47
2022/01/05 05:31:04;;;;;;;0.75;0.50;;;6.60;73.60;;;;;;7377663;19;20139;-48
2022/01/05 05:33:34;;;;;;;0.80;0.80;;;6.40;73.70;;;;;;7377434;19;20136;-49
2022/01/05 05:36:04;;;;;;;2.15;0.68;;;;;;;;;;7375765;19;20127;-48
2022/01/05 05:38:36;;;;;;;0.80;0.80;;;;;;;;;;7367612;19;20169;-48
2022/01/05 05:41:06;;;;;;;0.50;0.50;;;;;;;;;;7379612;19;20123;-48
2022/01/05 05:43:38;;;;;;;1.25;1.05;;;;;;;;;;7373712;19;20903;-48
2022/01/05 05:46:08;;;;;;;0.95;0.95;;;;;;;;;;7375404;19;20161;-48
2022/01/05 05:48:38;;;;;;;1.23;1.08;;;;;;;;;;7373898;19;20151;-48
2022/01/05 05:51:10;;;;;;;0.70;0.60;;;;;;;;;;7374268;19;20136;-48
2022/01/05 05:53:42;;;;;;;1.35;0.70;;;6.20;74.30;;;;;;7377718;19;20134;-48
2022/01/05 05:56:11;;;;;;;0.73;0.50;;;5.40;79.10;;;;;;7376026;19;20139;-49
2022/01/05 05:58:41;;;;;;;0.63;0.60;;;5.40;78.50;;;;;;7373353;19;20131;-47
2022/01/05 06:01:10;;;;;;;1.42;0.90;;;5.40;77.80;;;;;;7377331;19;20494;-47
2022/01/05 06:03:42;;;;;;;0.75;0.75;;;5.50;77.60;;;;;;7375234;19;21171;-48
2022/01/05 06:06:12;;;;;;;1.48;0.90;;;5.50;77.30;;;;;;7376313;19;20143;-49
2022/01/05 06:08:46;;;;;;;8.30;4.55;;;5.60;76.50;;;;;;7378885;19;20128;-49
2022/01/05 06:11:18;;;;;;;6.18;4.05;;;5.50;76.40;;;;;;7369861;19;20159;-48
2022/01/05 06:13:49;;;;;;;2.33;2.00;;;5.50;76.20;;;;;;7373653;19;20147;-49
2022/01/05 06:16:19;;;;;;;15.80;3.60;;;;;;;;;;7376675;19;20139;-47
2022/01/05 06:18:49;;;;;;;6.25;3.45;;;;;;;;;;7368446;19;20131;-47
2022/01/05 06:21:18;;;;;;;3.25;2.38;;;;;;;;;;7372471;19;20136;-48
2022/01/05 06:23:51;;;;;;;3.20;1.77;;;;;;;;;;7375131;19;20463;-47
2022/01/05 06:26:22;;;;;;;1.60;1.20;;;;;;;;;;7371666;19;20662;-48
2022/01/05 06:28:53;;;;;;;1.42;0.85;;;;;;;;;;7373624;19;20228;-49
2022/01/05 06:31:22;;;;;;;1.48;1.20;;;;;;;;;;7377939;19;20157;-48
2022/01/05 06:33:52;;;;;;;0.80;0.80;;;;;;;;;;7374767;19;20139;-48
2022/01/05 06:36:24;;;;;;;0.80;0.80;;;;;;;;;;7375435;19;20130;-47
2022/01/05 06:38:56;;;;;;;0.95;0.80;;;;;;;;;;7374091;19;20153;-48
2022/01/05 06:41:26;;;;;;;0.90;0.90;;;;;;;;;;7376639;19;20128;-49
2022/01/05 06:43:55;;;;;;;2.03;1.30;;;;;;;;;;7376138;19;20852;-47
2022/01/05 06:46:25;;;;;;;1.30;1.20;;;;;;;;;;7380609;19;20594;-48
2022/01/05 06:48:55;;;;;;;1.00;1.00;;;;;;;;;;7370104;19;20147;-47
2022/01/05 06:51:24;;;;;;;1.35;1.15;;;;;;;;;;7376131;19;20127;-47
2022/01/05 06:53:57;;;;;;;1.65;1.10;;;;;;;;;;7373159;19;20142;-47
2022/01/05 06:56:27;;;;;;;1.10;0.90;;;;;;;;;;7372937;19;20135;-47
2022/01/05 06:58:56;;;;;;;1.23;1.10;;;;;;;;;;7371659;19;20127;-48
2022/01/05 07:01:26;;;;;;;0.70;0.70;;;;;;;;;;7374922;19;20642;-48
2022/01/05 07:03:55;;;;;;;1.77;1.15;;;;;;;;;;7375930;19;20131;-48
2022/01/05 07:06:25;;;;;;;2.10;1.75;;;;;;;;;;7375575;19;20153;-48
2022/01/05 07:08:57;;;;;;;0.98;0.88;;;;;;;;;;7375160;19;20138;-48
2022/01/05 07:11:27;;;;;;;1.23;0.80;;;;;;;;;;7370802;19;20151;-48
2022/01/05 07:13:57;;;;;;;2.72;1.30;;;;;;;;;;7370773;19;20127;-49
2022/01/05 07:16:26;;;;;;;2.03;0.85;;;;;;;;;;7372602;19;20136;-47
2022/01/05 07:18:56;;;;;;;1.00;0.90;;;;;;;;;;7373927;19;20618;-48
2022/01/05 07:21:26;;;;;;;1.63;1.00;;;;;;;;;;7376619;19;20136;-48
2022/01/05 07:23:58;;;;;;;1.00;1.00;;;;;;;;;;7368143;19;20134;-48
2022/01/05 07:26:27;;;;;;;0.82;0.82;;;;;;;;;;7367631;19;20135;-48
2022/01/05 07:28:57;;;;;;;1.85;1.10;;;;;;;;;;7360171;19;20496;-48
2022/01/05 07:31:27;;;;;;;1.42;0.82;;;;;;;;;;7371639;19;20124;-49
2022/01/05 07:33:59;;;;;;;0.90;0.90;;;;;;;;;;7365806;19;20131;-48
2022/01/05 07:36:29;;;;;;;1.38;0.95;;;;;;;;;;7373262;19;20223;-49
2022/01/05 07:39:02;;;;;;;2.38;0.90;;;;;;;;;;7365585;19;20623;-48
2022/01/05 07:41:32;;;;;;;1.77;1.00;;;;;;;;;;7373236;19;20727;-48
2022/01/05 07:44:05;;;;;;;3.70;1.25;;;;;;;;;;7368311;19;20131;-48
2022/01/05 07:46:35;;;;;;;1.27;0.93;;;;;;;;;;7368692;19;20450;-48
2022/01/05 07:49:05;;;;;;;3.47;1.20;;;;;;;;;;7371082;19;20139;-47
2022/01/05 07:51:35;;;;;;;1.33;1.10;;;;;;;;;;7375627;19;20468;-48
2022/01/05 07:54:07;;;;;;;1.83;1.10;;;;;;;;;;7370675;19;20138;-48
2022/01/05 07:56:40;;;;;;;2.65;1.40;;;;;;;;;;7364654;19;20238;-49
2022/01/05 07:59:10;;;;;;;3.13;1.50;;;;;;;;;;7369673;19;20216;-48
2022/01/05 08:01:40;;;;;;;1.75;1.35;;;;;;;;;;7367859;19;20134;-47
2022/01/05 08:04:10;;;;;;;3.35;1.52;;;;;;;;;;7363782;19;20139;-48
2022/01/05 08:06:40;;;;;;;3.47;2.13;;;;;;;;;;7358867;19;20128;-48
2022/01/05 08:09:12;;;;;;;2.03;1.30;;;;;;;;;;7369344;19;20152;-48
2022/01/05 08:11:41;;;;;;;2.30;1.50;;;;;;;;;;7363685;19;20155;-47
2022/01/05 08:14:11;;;;;;;4.57;1.70;;;;;;;;;;7365640;19;20123;-47
2022/01/05 08:16:43;;;;;;;4.35;1.70;;;;;;;;;;7372507;19;20147;-48
2022/01/05 08:19:12;;;;;;;2.53;1.35;;;;;;;;;;7367434;19;20131;-48
2022/01/05 08:21:42;;;;;;;8.85;1.40;;;;;;;;;;7366945;19;20479;-47
2022/01/05 08:24:14;;;;;;;5.50;2.10;;;;;;;;;;7363084;19;20476;-49
2022/01/05 08:26:44;;;;;;;2.53;1.90;;;;;;;;;;7367413;19;20138;-48
2022/01/05 08:29:14;;;;;;;2.45;1.52;;;;;;;;;;7368242;19;20127;-48
2022/01/05 08:31:43;;;;;;;4.57;1.88;;;;;;;;;;7373145;19;20746;-46
2022/01/05 08:34:13;;;;;;;2.60;1.80;;;;;;;;;;7370447;19;20131;-46
2022/01/05 08:36:43;;;;;;;2.00;1.45;;;;;;;;;;7372499;19;20149;-46
2022/01/05 08:39:15;;;;;;;2.60;1.67;;;;;;;;;;7368880;19;20764;-46
2022/01/05 08:41:45;;;;;;;5.32;1.70;;;;;;;;;;7372308;19;20135;-46
2022/01/05 08:44:14;;;;;;;1.77;1.42;;;;;;;;;;7368658;19;20135;-46
2022/01/05 08:46:44;;;;;;;4.13;1.95;;;;;;;;;;7373049;19;20136;-46
2022/01/05 08:49:16;;;;;;;5.13;1.70;;;;;;;;;;7375324;19;20147;-46
2022/01/05 08:51:46;;;;;;;6.00;2.15;;;;;;;;;;7383006;19;20131;-46
2022/01/05 08:54:18;;;;;;;2.47;2.03;;;;;;;;;;7379693;19;20192;-46
2022/01/05 08:56:48;;;;;;;3.65;1.63;;;;;;;;;;7381085;19;20124;-46
2022/01/05 08:59:17;;;;;;;3.10;1.98;;;5.50;74.30;;;;;;7379064;19;20625;-46
2022/01/05 09:01:47;;;;;;;1.73;1.63;;;4.90;60.90;;;;;;7382030;19;20120;-47
2022/01/05 09:04:17;;;;;;;2.90;1.63;;;4.80;60.90;;;;;;7379196;19;20131;-47
2022/01/05 09:06:47;;;;;;;5.22;2.15;;;4.90;61.10;;;;;;7380516;19;20138;-47
2022/01/05 09:09:19;;;;;;;2.92;1.70;;;5.20;60.60;;;;;;7375767;19;20771;-47
2022/01/05 09:11:48;;;;;;;3.78;1.52;;;5.80;58.60;;;;;;7373944;19;20155;-48
2022/01/05 09:14:20;;;;;;;3.50;1.40;;;5.80;58.30;;;;;;7379029;19;20135;-48
2022/01/05 09:16:51;;;;;;;7.22;1.60;;;5.80;57.60;;;;;;7380580;19;20135;-47
2022/01/05 09:19:20;;;;;;;3.58;1.60;;;5.60;58.40;;;;;;7377351;19;20139;-48
2022/01/05 09:21:52;;;;;;;4.18;1.35;;;5.50;58.30;;;;;;7379661;19;20131;-48
2022/01/05 09:24:25;;;;;;;2.72;1.30;;;5.60;58.80;;;;;;7377659;19;20614;-48
2022/01/05 09:26:56;;;;;;;5.10;1.42;;;5.60;58.20;;;;;;7379855;19;20131;-47
2022/01/05 09:29:26;;;;;;;3.22;1.65;;;5.60;57.50;;;;;;7379522;19;20128;-47
2022/01/05 09:31:56;;;;;;;2.67;1.27;;;5.60;57.50;;;;;;7377319;19;20142;-46
2022/01/05 09:34:25;;;;;;;1.58;1.38;;;;;;;;;;7378007;19;20644;-46
2022/01/05 09:36:59;;;;;;;3.75;1.45;;;;;;;;;;7382730;19;20139;-46
2022/01/05 09:42:14;;;;;;;3.22;1.50;;;;;;;;;;7379598;19;20199;-46
2022/01/05 09:44:44;;;;;;;3.17;1.50;;;;;;;;;;7378638;19;20619;-46
2022/01/05 09:47:29;;;;;;;5.35;2.60;;;;;;;;;;7380939;19;20155;-46
2022/01/05 09:50:03;;;;;;;6.32;2.00;;;;;;;;;;7380348;19;20541;-46
2022/01/05 09:52:33;;;;;;;7.75;2.40;;;;;;;;;;7379203;19;20780;-46
2022/01/05 09:55:10;;;;;;;4.07;1.70;;;;;;;;;;7376497;19;20127;-46
2022/01/05 09:57:41;;;;;;;8.95;3.00;;;;;;;;;;7380930;19;20162;-46
2022/01/05 10:00:11;;;;;;;4.28;2.67;;;;;;;;;;7377899;19;20161;-47
2022/01/05 10:02:41;;;;;;;6.45;2.00;;;;;;;;;;7376391;19;20127;-48
2022/01/05 10:05:11;;;;;;;7.18;1.73;;;;;;;;;;7375976;19;20127;-48
2022/01/05 10:07:41;;;;;;;4.95;2.10;;;;;;;;;;7378869;19;20613;-48
2022/01/05 10:10:14;;;;;;;7.63;2.63;;;;;;;;;;7379213;19;20143;-47
2022/01/05 10:12:44;;;;;;;6.35;2.00;;;;;;;;;;7377703;19;20147;-47
2022/01/05 10:15:15;;;;;;;2.70;1.42;;;;;;;;;;7382296;19;20143;-48
2022/01/05 10:17:45;;;;;;;2.97;1.55;;;;;;;;;;7380434;19;20716;-47
2022/01/05 10:20:15;;;;;;;3.60;1.88;;;;;;;;;;7378124;19;20127;-48
2022/01/05 10:22:46;;;;;;;5.30;1.80;;;;;;;;;;7378061;19;20165;-48
2022/01/05 10:25:23;;;;;;;2.42;1.50;;;;;;;;;;7380284;19;20128;-48
2022/01/05 10:28:03;;;;;;;9.10;2.00;;;;;;;;;;7376220;19;20151;-48
2022/01/05 10:30:39;;;;;;;3.92;1.63;;;;;;;;;;7378323;19;20139;-48
2022/01/05 10:33:09;;;;;;;4.20;1.63;;;;;;;;;;7376446;19;20138;-47
2022/01/05 10:35:39;;;;;;;3.67;1.60;;;;;;;;;;7378392;19;20127;-47
2022/01/05 10:38:12;;;;;;;3.20;1.50;;;;;;;;;;7378580;19;20143;-48
2022/01/05 10:40:45;;;;;;;6.18;1.75;;;;;;;;;;7374103;19;20128;-49
2022/01/05 10:43:15;;;;;;;2.08;1.10;;;;;;;;;;7376379;19;20673;-48
2022/01/05 10:45:46;;;;;;;4.05;2.05;;;;;;;;;;7378928;19;20609;-48
2022/01/05 10:48:19;;;;;;;5.35;1.70;;;;;;;;;;7374029;19;20148;-48
2022/01/05 10:50:50;;;;;;;7.10;1.33;;;;;;;;;;7377936;19;20139;-48
2022/01/05 10:53:22;;;;;;;4.93;1.45;;;;;;;;;;7376789;19;20662;-48
2022/01/05 10:55:54;;;;;;;4.82;2.00;;;;;;;;;;7380369;19;20251;-48
2022/01/05 10:58:24;;;;;;;6.72;1.55;;;;;;;;;;7376582;19;20143;-47
2022/01/05 11:00:54;;;;;;;6.30;1.80;;;;;;;;;;7376049;19;20638;-46
2022/01/05 11:03:30;;;;;;;3.33;1.55;;;;;;;;;;7379176;19;20124;-46
2022/01/05 11:06:07;;;;;;;8.15;1.80;;;;;;;;;;7377037;19;20127;-46
2022/01/05 11:08:48;;;;;;;3.33;1.60;;;;;;;;;;7376637;19;21227;-46
2022/01/05 11:11:36;;;;;;;2.78;1.45;;;;;;;;;;7373418;19;20155;-46
2022/01/05 11:14:06;;;;;;;6.00;1.67;;;;;;;;;;7375203;19;20582;-47
2022/01/05 11:16:37;;;;;;;4.57;1.40;;;;;;;;;;7377712;19;20139;-47
2022/01/05 11:19:17;;;;;;;2.08;1.30;;;;;;;;;;7374542;19;20157;-48
2022/01/05 11:21:58;;;;;;;5.87;1.63;;;;;;;;;;7376976;19;20127;-48
2022/01/05 11:24:29;;;;;;;4.33;1.27;;;;;;;;;;7374227;19;20355;-48
2022/01/05 11:27:04;;;;;;;6.13;2.13;;;;;;;;;;7374878;19;20392;-49
2022/01/05 11:29:34;;;;;;;5.60;2.13;;;;;;;;;;7374616;19;20399;-48
2022/01/05 11:32:04;;;;;;;2.40;1.40;;;;;;;;;;7375298;19;20400;-49
2022/01/05 11:34:33;;;;;;;6.83;1.77;;;;;;;;;;7374926;19;21331;-49
2022/01/05 11:37:04;;;;;;;4.10;1.80;;;;;;;;;;7373931;19;20376;-49
2022/01/05 11:39:34;;;;;;;4.73;2.60;;;;;;;;;;7373484;19;20387;-49
2022/01/05 11:42:12;;;;;;;3.50;1.50;;;;;;;;;;7374531;19;20360;-49
2022/01/05 11:44:48;;;;;;;4.10;1.73;;;;;;;;;;7376219;19;21365;-49
2022/01/05 11:47:23;;;;;;;3.83;1.67;;;;;;;;;;7374660;19;20395;-49
2022/01/05 11:49:53;;;;;;;3.93;2.20;;;;;;;;;;7375100;19;20392;-50
2022/01/05 11:52:55;;;;;;;6.23;1.50;;;5.80;57.40;;;;;;7373678;19;20408;-49
2022/01/05 11:55:25;;;;;;;5.22;1.90;;;8.30;44.40;;;;;;7374421;19;20376;-49
2022/01/05 11:58:20;;;;;;;2.35;1.35;;;7.90;45.70;;;;;;7374542;19;20590;-50
2022/01/05 12:01:10;;;;;;;7.20;1.65;;;7.50;45.90;;;;;;7373794;19;21038;-50
2022/01/05 12:04:13;;;;;;;4.25;2.00;;;7.20;46.80;;;;;;7375251;19;20143;-49
2022/01/05 12:07:07;;;;;;;2.63;1.20;;;7.00;47.10;;;;;;7374691;19;20123;-49
2022/01/05 12:09:39;;;;;;;5.13;2.10;;;6.90;47.70;;;;;;7374661;19;20139;-49
2022/01/05 12:12:27;;;;;;;7.13;1.70;;;7.00;47.60;;;;;;7371265;19;20166;-49
2022/01/05 12:15:00;;;;;;;7.40;1.50;;;7.10;47.90;;;;;;7374242;19;20224;-48
2022/01/05 12:17:32;;;;;;;10.35;2.05;;;7.00;47.70;;;;;;7374551;19;20472;-49
2022/01/05 12:20:11;;;;;;;6.47;1.75;;;7.30;47.10;;;;;;7376183;19;20132;-48
2022/01/05 12:22:41;;;;;;;5.82;1.67;;;7.30;47.40;;;;;;7375003;19;20138;-50
2022/01/05 12:25:20;;;;;;;3.28;1.60;;;7.30;47.70;;;;;;7369104;19;20487;-49
2022/01/05 12:28:02;;;;;;;6.35;2.30;;;7.50;46.50;;;;;;7374154;19;20139;-48
2022/01/05 12:30:45;;;;;;;8.57;1.85;;;7.50;46.50;;;;;;7373014;19;20127;-50
2022/01/05 12:33:19;;;;;;;1.50;1.15;;;7.30;46.20;;;;;;7374668;19;20139;-48
2022/01/05 12:35:57;;;;;;;4.65;2.03;;;7.10;46.50;;;;;;7376368;19;20226;-48
2022/01/05 12:38:36;;;;;;;2.75;1.20;;;7.10;46.90;;;;;;7376661;19;20127;-48
2022/01/05 12:41:24;;;;;;;4.25;1.65;;;7.00;47.00;;;;;;7372854;19;20134;-46
2022/01/05 12:43:55;;;;;;;3.97;1.60;;;6.80;47.10;;;;;;7375143;19;20142;-46
2022/01/05 12:46:42;;;;;;;3.15;1.55;;;6.50;47.80;;;;;;7374897;19;20614;-46
2022/01/05 12:49:14;;;;;;;7.35;1.70;;;;;;;;;;7373598;19;20132;-46
2022/01/05 12:51:47;;;;;;;4.68;2.35;;;;;;;;;;7373587;19;20161;-46
2022/01/05 12:54:20;;;;;;;4.72;1.00;;;;;;;;;;7371745;19;20135;-46
2022/01/05 12:56:52;;;;;;;9.55;1.73;;;6.20;47.50;;;;;;7374744;19;20143;-46
2022/01/05 12:59:28;;;;;;;5.10;2.10;;;;;;;;;;7373419;19;20120;-46
2022/01/05 13:02:03;;;;;;;4.00;1.45;;;6.00;48.90;;;;;;7373914;19;20135;-46
2022/01/05 13:04:34;;;;;;;3.05;1.60;;;6.10;48.90;;;;;;7372633;19;20128;-46
2022/01/05 13:07:06;;;;;;;5.03;1.58;;;6.00;48.50;;;;;;7372965;19;20152;-46
2022/01/05 13:09:37;;;;;;;3.53;1.17;;;6.10;49.00;;;;;;7373473;19;20898;-48
2022/01/05 13:12:11;;;;;;;4.10;1.50;;;6.10;48.80;;;;;;7369031;19;20156;-48
2022/01/05 13:14:43;;;;;;;4.57;1.10;;;6.10;49.10;;;;;;7371539;19;20138;-50
2022/01/05 13:17:19;;;;;;;2.53;1.15;;;6.10;48.70;;;;;;7350789;19;20557;-48
2022/01/05 13:19:52;;;;;;;4.45;1.52;;;6.00;49.00;;;;;;7370614;19;20606;-48
2022/01/05 13:22:24;;;;;;;2.35;1.40;;;6.00;49.40;;;;;;7373150;19;20478;-49
2022/01/05 13:25:06;;;;;;;5.65;2.40;;;5.90;49.60;;;;;;7373591;19;20131;-48
2022/01/05 13:27:38;;;;;;;6.13;1.65;;;5.90;49.70;;;;;;7371766;19;20127;-49
2022/01/05 13:30:11;;;;;;;9.07;1.50;;;5.70;49.50;;;;;;7371577;19;20139;-49
2022/01/05 13:32:44;;;;;;;3.28;1.75;;;5.80;49.70;;;;;;7367922;19;20127;-48
2022/01/05 13:35:15;;;;;;;3.60;1.63;;;5.70;49.00;;;;;;7370947;19;20127;-49
2022/01/05 13:37:47;;;;;;;3.38;1.67;;;5.70;49.50;;;;;;7377761;19;20131;-49
2022/01/05 13:40:18;;;;;;;3.45;1.48;;;;;;;;;;7378734;19;20127;-47
2022/01/05 13:42:49;;;;;;;2.67;1.83;;;5.70;49.10;;;;;;7379184;19;20138;-47
2022/01/05 13:45:23;;;;;;;2.40;1.55;;;5.70;49.40;;;;;;7377519;19;20199;-47
2022/01/05 13:47:59;;;;;;;6.60;2.75;;;5.60;48.90;;;;;;7376650;19;20163;-47
2022/01/05 13:50:34;;;;;;;5.90;1.73;;;5.60;48.70;;;;;;7377342;19;20146;-48
2022/01/05 13:53:06;;;;;;;4.78;1.52;;;5.50;48.80;;;;;;7380991;19;20481;-48
2022/01/05 13:55:38;;;;;;;2.97;1.00;;;5.60;48.50;;;;;;7378042;19;20135;-47
2022/01/05 13:58:18;;;;;;;2.90;1.30;;;5.60;49.30;;;;;;7378537;19;20473;-48
2022/01/05 14:00:50;;;;;;;5.43;1.40;;;5.60;48.70;;;;;;7378724;19;20617;-49